Urb Monte Brisas 3, Puerto Rico
Current Conditions -  °F | °C
As of 3:53 AM on Wednesday 26 Nov 2014 (Local Time) from TJNR Reporting Station
Overcast Overcast  
Wind Chill: 79°   Ceiling: 9000
Heat Index: 82°   Visibility: 10mi
Dew Point: 73°   Wind: 8mph
Humidity: 82%   Direction: 70°ENE
Pressure: 29.98"   Gusts: NA
Location:  18.3304°N, 65.6573°W
Report Text: TJNR 260753Z AUTO 07007KT 10SM FEW043 OVC090 26/23 A2998 RMK AO2 SLP153 T02610228 $
Loading
Personal Weather Stations






























Interactive Weather Map New forecast layout! Learn more

10-Day Weather Forecast

Advertisements
Track Severe Weather on mobile